createdAt,value
2023-05-08T00:00:13.583Z,6.97
2023-05-08T00:01:16.315Z,7.05
2023-05-08T00:02:18.025Z,6.80
2023-05-08T00:03:19.744Z,8.02
2023-05-08T00:04:21.590Z,6.65
2023-05-08T00:05:23.346Z,10.30
2023-05-08T00:06:24.957Z,7.32
2023-05-08T00:07:26.497Z,8.33
2023-05-08T00:08:28.329Z,7.78
2023-05-08T00:09:29.936Z,7.43
2023-05-08T00:10:31.535Z,6.35
2023-05-08T00:11:33.130Z,6.63
2023-05-08T00:12:34.711Z,8.05
2023-05-08T00:13:36.344Z,9.02
2023-05-08T00:14:37.953Z,6.70
2023-05-08T00:15:39.544Z,16.98
2023-05-08T00:16:41.170Z,6.45
2023-05-08T00:17:42.771Z,10.27
2023-05-08T00:18:44.541Z,7.13
2023-05-08T00:19:46.220Z,7.50
2023-05-08T00:20:47.825Z,8.85
2023-05-08T00:21:49.469Z,8.35
2023-05-08T00:22:51.053Z,7.57
2023-05-08T00:23:53.023Z,10.00
2023-05-08T00:24:54.587Z,9.90
2023-05-08T00:25:56.376Z,8.43
2023-05-08T00:26:58.007Z,7.82
2023-05-08T00:28:00.269Z,8.37
2023-05-08T00:29:01.906Z,6.45
2023-05-08T00:30:03.738Z,7.65
2023-05-08T00:31:05.379Z,9.02
2023-05-08T00:32:07.848Z,8.93
2023-05-08T00:33:09.831Z,6.57
2023-05-08T00:34:11.601Z,10.38
2023-05-08T00:35:13.175Z,6.80
2023-05-08T00:36:15.918Z,7.22
2023-05-08T00:37:17.688Z,8.77
2023-05-08T00:38:19.341Z,7.83
2023-05-08T00:39:20.926Z,8.73
2023-05-08T00:40:22.638Z,7.00
2023-05-08T00:41:24.266Z,7.30
2023-05-08T00:42:25.936Z,7.25
2023-05-08T00:43:30.715Z,9.05
2023-05-08T00:44:32.572Z,7.32
2023-05-08T00:45:37.945Z,8.45
2023-05-08T00:46:39.603Z,6.10
2023-05-08T00:47:41.346Z,7.43
2023-05-08T00:48:43.122Z,6.83
2023-05-08T00:49:44.720Z,7.85
2023-05-08T00:50:46.953Z,8.00
2023-05-08T00:51:49.618Z,7.68
2023-05-08T00:52:51.594Z,7.03
2023-05-08T00:53:53.205Z,6.65
2023-05-08T00:54:54.854Z,8.30
2023-05-08T00:55:56.613Z,7.93
2023-05-08T00:56:58.319Z,8.02
2023-05-08T00:58:00.390Z,12.55
2023-05-08T00:59:02.115Z,7.90
2023-05-08T01:00:04.711Z,8.85
2023-05-08T01:01:06.401Z,8.48
2023-05-08T01:02:08.777Z,7.22
2023-05-08T01:03:10.501Z,10.27
2023-05-08T01:04:12.230Z,9.43
2023-05-08T01:05:13.837Z,8.05
2023-05-08T01:06:15.512Z,7.68
2023-05-08T01:07:17.769Z,7.35
2023-05-08T01:08:21.026Z,7.85
2023-05-08T01:09:22.670Z,8.70
2023-05-08T01:10:24.379Z,7.53
2023-05-08T01:11:29.551Z,8.82
2023-05-08T01:12:41.092Z,8.75
2023-05-08T01:14:01.025Z,6.20
2023-05-08T01:15:08.651Z,6.78
2023-05-08T01:16:17.199Z,6.88
2023-05-08T01:17:33.347Z,8.93
2023-05-08T01:18:42.637Z,10.13
2023-05-08T01:20:06.460Z,6.82
2023-05-08T01:21:13.446Z,7.30
2023-05-08T01:22:39.535Z,8.77
2023-05-08T01:23:57.061Z,8.95
2023-05-08T01:25:10.494Z,7.28
2023-05-08T01:26:34.016Z,7.32
2023-05-08T01:27:55.953Z,7.50
2023-05-08T01:29:25.642Z,8.00
2023-05-08T01:30:39.072Z,8.00
2023-05-08T01:31:43.640Z,7.10
2023-05-08T01:33:27.399Z,7.47
2023-05-08T01:34:32.229Z,7.33
2023-05-08T01:35:39.884Z,7.38
2023-05-08T01:36:57.060Z,8.52
2023-05-08T01:38:13.226Z,7.10
2023-05-08T01:39:30.801Z,8.38
2023-05-08T01:40:41.007Z,7.85
2023-05-08T01:41:43.493Z,6.50
2023-05-08T01:42:57.051Z,7.72
2023-05-08T01:44:18.858Z,7.55
2023-05-08T01:45:29.116Z,7.10
2023-05-08T01:46:32.538Z,7.67
2023-05-08T01:47:36.304Z,7.03
2023-05-08T01:48:41.207Z,8.05
2023-05-08T01:49:47.847Z,6.85
2023-05-08T01:50:51.025Z,8.93
2023-05-08T01:52:04.627Z,8.88
2023-05-08T01:53:20.939Z,9.15
2023-05-08T01:54:23.982Z,8.25
2023-05-08T01:55:27.439Z,7.85
2023-05-08T01:56:29.718Z,9.55
2023-05-08T01:57:33.726Z,7.50
2023-05-08T01:58:35.535Z,6.68
2023-05-08T01:59:37.184Z,9.80
2023-05-08T02:00:39.630Z,8.13
2023-05-08T02:01:41.336Z,7.82
2023-05-08T02:02:43.129Z,7.78
2023-05-08T02:03:44.830Z,9.05
2023-05-08T02:04:46.464Z,10.70
2023-05-08T02:05:48.107Z,8.48
2023-05-08T02:06:51.202Z,7.95
2023-05-08T02:07:53.203Z,8.20
2023-05-08T02:08:55.081Z,7.93
2023-05-08T02:09:56.698Z,7.78
2023-05-08T02:10:58.291Z,8.30
2023-05-08T02:11:59.943Z,8.63
2023-05-08T02:13:01.802Z,9.85
2023-05-08T02:14:03.459Z,9.35
2023-05-08T02:15:05.712Z,7.70
2023-05-08T02:16:08.600Z,7.93
2023-05-08T02:17:10.173Z,8.10
2023-05-08T02:18:11.810Z,10.83
2023-05-08T02:19:13.451Z,6.82
2023-05-08T02:20:15.348Z,7.75
2023-05-08T02:21:17.075Z,7.85
2023-05-08T02:22:18.676Z,7.18
2023-05-08T02:23:22.576Z,8.02
2023-05-08T02:24:24.383Z,8.40
2023-05-08T02:25:26.037Z,8.07
2023-05-08T02:26:27.683Z,10.20
2023-05-08T02:27:29.347Z,6.75
2023-05-08T02:28:31.008Z,7.53
2023-05-08T02:29:32.673Z,8.18
2023-05-08T02:30:34.309Z,7.18
2023-05-08T02:31:36.135Z,9.82
2023-05-08T02:32:37.789Z,7.32
2023-05-08T02:33:40.462Z,6.75
2023-05-08T02:34:48.188Z,7.85
2023-05-08T02:36:00.764Z,8.05
2023-05-08T02:37:02.388Z,13.30
2023-05-08T02:38:04.003Z,8.60
2023-05-08T02:39:05.689Z,8.03
2023-05-08T02:40:07.681Z,11.10
2023-05-08T02:41:09.277Z,9.95
2023-05-08T02:42:11.006Z,9.02
2023-05-08T02:43:12.648Z,7.47
2023-05-08T02:44:14.248Z,7.35
2023-05-08T02:45:15.853Z,9.30
2023-05-08T02:46:26.521Z,10.13
2023-05-08T02:47:50.352Z,11.88
2023-05-08T02:49:00.287Z,11.85
2023-05-08T02:50:23.616Z,8.43
2023-05-08T02:51:31.274Z,7.47
2023-05-08T02:52:35.452Z,8.77
2023-05-08T02:53:44.140Z,11.70
2023-05-08T02:55:01.465Z,8.93
2023-05-08T02:56:07.859Z,8.32
2023-05-08T02:57:34.180Z,7.50
2023-05-08T02:58:43.544Z,8.27
2023-05-08T03:00:04.660Z,8.02
2023-05-08T03:01:08.952Z,7.70
2023-05-08T03:02:32.366Z,7.87
2023-05-08T03:03:42.325Z,7.70
2023-05-08T03:04:51.646Z,7.85
2023-05-08T03:05:57.869Z,8.20
2023-05-08T03:06:59.558Z,8.63
2023-05-08T03:08:04.170Z,7.88
2023-05-08T03:09:05.909Z,7.72
2023-05-08T03:10:10.707Z,9.18
2023-05-08T03:11:15.303Z,8.23
2023-05-08T03:12:20.919Z,7.97
2023-05-08T03:13:22.559Z,7.43
2023-05-08T03:14:24.181Z,9.38
2023-05-08T03:15:38.622Z,9.35
2023-05-08T03:16:41.553Z,8.55
2023-05-08T03:17:43.351Z,10.20
2023-05-08T03:18:51.651Z,8.95
2023-05-08T03:19:55.598Z,7.45
2023-05-08T03:20:58.335Z,9.27
2023-05-08T03:21:59.940Z,9.82
2023-05-08T03:23:01.740Z,9.73
2023-05-08T03:24:03.438Z,11.27
2023-05-08T03:25:05.476Z,10.32
2023-05-08T03:26:07.170Z,9.07
2023-05-08T03:27:08.913Z,8.90
2023-05-08T03:28:10.757Z,10.95
2023-05-08T03:29:13.552Z,10.45
2023-05-08T03:30:15.333Z,11.50
2023-05-08T03:31:19.164Z,11.48
2023-05-08T03:32:21.306Z,10.60
2023-05-08T03:33:22.950Z,11.07
2023-05-08T03:34:24.580Z,10.77
2023-05-08T03:35:26.194Z,10.63
2023-05-08T03:36:28.955Z,10.35
2023-05-08T03:37:30.568Z,10.82
2023-05-08T03:38:32.410Z,11.43
2023-05-08T03:39:34.055Z,11.88
2023-05-08T03:40:44.710Z,11.85
2023-05-08T03:41:46.458Z,9.80
2023-05-08T03:42:48.027Z,11.98
2023-05-08T03:43:49.605Z,11.80
2023-05-08T03:44:51.782Z,12.73
2023-05-08T03:45:53.418Z,12.35
2023-05-08T03:46:56.078Z,12.02
2023-05-08T03:47:57.865Z,11.13
2023-05-08T03:49:00.468Z,13.77
2023-05-08T03:50:02.101Z,11.93
2023-05-08T03:51:04.291Z,11.57
2023-05-08T03:52:05.895Z,11.23
2023-05-08T03:53:07.547Z,15.50
2023-05-08T03:54:09.185Z,12.88
2023-05-08T03:55:11.226Z,11.67
2023-05-08T03:56:13.346Z,12.48
2023-05-08T03:57:15.020Z,12.98
2023-05-08T03:58:41.329Z,14.05
2023-05-08T03:59:47.238Z,12.48
2023-05-08T04:01:09.316Z,13.13
2023-05-08T04:02:29.887Z,12.85
2023-05-08T04:03:34.778Z,13.30
2023-05-08T04:04:40.833Z,12.10
2023-05-08T04:05:51.033Z,13.23
2023-05-08T04:07:00.865Z,12.77
2023-05-08T04:08:16.368Z,14.20
2023-05-08T04:09:31.023Z,12.02
2023-05-08T04:10:36.939Z,10.88
2023-05-08T04:11:42.995Z,11.45
2023-05-08T04:12:53.784Z,10.68
2023-05-08T04:13:58.939Z,10.93
2023-05-08T04:15:05.029Z,13.88
2023-05-08T04:16:09.901Z,12.60
2023-05-08T04:17:12.983Z,11.85
2023-05-08T04:18:18.161Z,12.40
2023-05-08T04:19:23.563Z,13.00
2023-05-08T04:20:27.358Z,12.15
2023-05-08T04:21:29.428Z,14.07
2023-05-08T04:22:34.012Z,14.88
2023-05-08T04:23:35.856Z,12.50
2023-05-08T04:24:40.948Z,11.52
2023-05-08T04:25:42.547Z,11.43
2023-05-08T04:26:44.684Z,12.43
2023-05-08T04:27:46.631Z,12.68
2023-05-08T04:28:48.330Z,15.30
2023-05-08T04:29:49.921Z,17.13
2023-05-08T04:30:52.091Z,15.02
2023-05-08T04:31:53.688Z,14.02
2023-05-08T04:32:55.928Z,13.65
2023-05-08T04:33:58.202Z,12.98
2023-05-08T04:34:59.764Z,13.75
2023-05-08T04:36:02.621Z,14.93
2023-05-08T04:37:06.569Z,12.10
2023-05-08T04:38:08.200Z,11.80
2023-05-08T04:39:09.826Z,12.90
2023-05-08T04:40:11.781Z,12.60
2023-05-08T04:41:13.465Z,12.10
2023-05-08T04:42:15.085Z,13.27
2023-05-08T04:43:16.731Z,14.80
2023-05-08T04:44:18.329Z,12.00
2023-05-08T04:45:20.215Z,13.40
2023-05-08T04:46:21.907Z,11.77
2023-05-08T04:47:24.326Z,13.27
2023-05-08T04:48:26.185Z,13.63
2023-05-08T04:49:27.795Z,14.37
2023-05-08T04:50:29.445Z,13.90
2023-05-08T04:51:32.015Z,15.32
2023-05-08T04:52:33.657Z,14.68
2023-05-08T04:53:35.323Z,13.57
2023-05-08T04:54:37.086Z,13.55
2023-05-08T04:55:38.659Z,13.85
2023-05-08T04:56:40.365Z,13.85
2023-05-08T04:57:41.972Z,13.20
2023-05-08T04:58:43.693Z,14.50
2023-05-08T04:59:45.408Z,15.00
2023-05-08T05:00:47.070Z,13.07
2023-05-08T05:01:48.742Z,12.40
2023-05-08T05:02:50.413Z,13.95
2023-05-08T05:03:52.055Z,12.43
2023-05-08T05:04:53.682Z,13.60
2023-05-08T05:05:59.586Z,12.82
2023-05-08T05:07:01.664Z,12.68
2023-05-08T05:08:04.295Z,13.90
2023-05-08T05:09:06.507Z,15.18
2023-05-08T05:10:08.380Z,14.87
2023-05-08T05:11:09.984Z,14.60
2023-05-08T05:12:11.571Z,15.18
2023-05-08T05:13:13.196Z,18.77
2023-05-08T05:14:14.887Z,24.02
2023-05-08T05:15:16.497Z,14.77
2023-05-08T05:16:18.208Z,12.32
2023-05-08T05:17:19.891Z,15.15
2023-05-08T05:18:21.586Z,13.35
2023-05-08T05:19:23.183Z,13.27
2023-05-08T05:20:24.773Z,13.20
2023-05-08T05:21:28.031Z,14.40
2023-05-08T05:22:29.689Z,40.58
2023-05-08T05:23:31.424Z,17.88
2023-05-08T05:24:33.490Z,12.82
2023-05-08T05:25:35.216Z,13.50
2023-05-08T05:26:37.323Z,15.40
2023-05-08T05:27:38.976Z,14.60
2023-05-08T05:28:40.550Z,15.38
2023-05-08T05:29:42.174Z,14.95
2023-05-08T05:30:46.508Z,13.83
2023-05-08T05:31:48.298Z,14.07
2023-05-08T05:32:49.904Z,13.85
2023-05-08T05:33:51.844Z,14.70
2023-05-08T05:34:54.154Z,14.90
2023-05-08T05:35:56.256Z,15.50
2023-05-08T05:36:57.836Z,14.15
2023-05-08T05:37:59.410Z,14.38
2023-05-08T05:39:01.062Z,13.38
2023-05-08T05:40:03.223Z,13.00
2023-05-08T05:41:04.846Z,15.53
2023-05-08T05:42:06.438Z,14.23
2023-05-08T05:43:08.039Z,13.70
2023-05-08T05:44:09.767Z,14.55
2023-05-08T05:45:11.768Z,15.18
2023-05-08T05:46:13.563Z,13.52
2023-05-08T05:47:15.264Z,16.10
2023-05-08T05:48:16.977Z,15.15
2023-05-08T05:49:18.642Z,14.75
2023-05-08T05:50:21.528Z,15.90
2023-05-08T05:51:23.281Z,15.10
2023-05-08T05:52:24.923Z,14.25
2023-05-08T05:53:26.625Z,14.95
2023-05-08T05:54:28.241Z,17.88
2023-05-08T05:55:30.003Z,15.00
2023-05-08T05:56:31.620Z,14.85
2023-05-08T05:57:33.794Z,16.33
2023-05-08T05:58:35.766Z,14.48
2023-05-08T05:59:37.484Z,15.07
2023-05-08T06:00:39.121Z,16.17
2023-05-08T06:01:40.728Z,16.73
2023-05-08T06:02:42.887Z,15.48
2023-05-08T06:03:44.839Z,15.70
2023-05-08T06:04:46.781Z,15.73
2023-05-08T06:05:48.465Z,14.38
2023-05-08T06:06:50.043Z,14.23
2023-05-08T06:07:51.740Z,16.85
2023-05-08T06:08:54.376Z,15.88
2023-05-08T06:09:56.289Z,15.63
2023-05-08T06:10:58.812Z,15.07
2023-05-08T06:12:00.584Z,14.87
2023-05-08T06:13:02.360Z,61.33
2023-05-08T06:14:03.956Z,17.75
2023-05-08T06:15:06.250Z,13.63
2023-05-08T06:16:08.220Z,15.45
2023-05-08T06:17:09.990Z,15.93
2023-05-08T06:18:11.757Z,22.00
2023-05-08T06:19:13.424Z,13.32
2023-05-08T06:20:14.991Z,14.65
2023-05-08T06:21:17.004Z,15.82
2023-05-08T06:22:18.705Z,14.43
2023-05-08T06:23:20.519Z,14.20
2023-05-08T06:24:22.267Z,14.60
2023-05-08T06:25:24.229Z,13.88
2023-05-08T06:26:26.309Z,15.05
2023-05-08T06:27:27.925Z,13.95
2023-05-08T06:28:29.517Z,15.15
2023-05-08T06:29:31.177Z,13.77
2023-05-08T06:30:32.817Z,14.75
2023-05-08T06:31:34.635Z,14.10
2023-05-08T06:32:36.651Z,14.43
2023-05-08T06:33:38.720Z,13.40
2023-05-08T06:34:40.304Z,12.25
2023-05-08T06:35:42.289Z,11.70
2023-05-08T06:36:43.944Z,13.38
2023-05-08T06:37:46.637Z,12.70
2023-05-08T06:38:48.244Z,12.93
2023-05-08T06:39:57.285Z,11.23
2023-05-08T06:41:05.865Z,14.05
2023-05-08T06:42:08.014Z,14.10
2023-05-08T06:43:10.556Z,14.07
2023-05-08T06:44:12.176Z,14.52
2023-05-08T06:45:14.021Z,17.02
2023-05-08T06:46:16.140Z,12.00
2023-05-08T06:47:17.830Z,13.98
2023-05-08T06:48:19.491Z,14.55
2023-05-08T06:49:21.152Z,14.48
2023-05-08T06:50:22.760Z,14.88
2023-05-08T06:51:24.403Z,13.43
2023-05-08T06:52:26.055Z,15.05
2023-05-08T06:53:27.728Z,12.17
2023-05-08T06:54:29.328Z,14.18
2023-05-08T06:55:31.299Z,12.95
2023-05-08T06:56:33.164Z,14.55
2023-05-08T06:57:35.042Z,11.35
2023-05-08T06:58:36.656Z,11.18
2023-05-08T06:59:38.252Z,12.50
2023-05-08T07:00:39.856Z,12.77
2023-05-08T07:01:41.885Z,13.27
2023-05-08T07:02:44.496Z,16.88
2023-05-08T07:03:46.529Z,14.37
2023-05-08T07:04:48.196Z,12.38
2023-05-08T07:05:49.908Z,10.98
2023-05-08T07:06:51.953Z,10.65
2023-05-08T07:07:54.374Z,11.43
2023-05-08T07:08:55.988Z,13.57
2023-05-08T07:09:57.616Z,12.77
2023-05-08T07:10:59.219Z,14.43
2023-05-08T07:12:00.946Z,7.78
2023-05-08T07:13:03.305Z,7.80
2023-05-08T07:14:05.028Z,12.63
2023-05-08T07:15:40.910Z,7.53
2023-05-08T07:16:29.020Z,7.18
2023-05-08T07:17:31.983Z,6.90
2023-05-08T07:18:33.653Z,10.05
2023-05-08T07:19:38.535Z,7.32
2023-05-08T07:20:40.165Z,9.65
2023-05-08T07:21:41.860Z,9.07
2023-05-08T07:22:43.538Z,8.73
2023-05-08T07:23:45.164Z,7.60
2023-05-08T07:24:47.113Z,9.23
2023-05-08T07:25:48.732Z,14.18
2023-05-08T07:26:50.415Z,7.90
2023-05-08T07:27:52.113Z,7.10
2023-05-08T07:28:56.423Z,8.45
2023-05-08T07:29:58.885Z,12.10
2023-05-08T07:31:00.506Z,24.35
2023-05-08T07:32:02.487Z,12.07
2023-05-08T07:33:04.194Z,9.30
2023-05-08T07:34:07.338Z,9.25
2023-05-08T07:35:11.511Z,8.90
2023-05-08T07:36:13.477Z,8.68
2023-05-08T07:37:15.218Z,7.80
2023-05-08T07:38:16.988Z,7.75
2023-05-08T07:39:18.603Z,8.95
2023-05-08T07:40:20.228Z,8.52
2023-05-08T07:41:21.815Z,8.00
2023-05-08T07:42:23.435Z,7.53
2023-05-08T07:43:25.113Z,8.00
2023-05-08T07:44:26.760Z,31.30
2023-05-08T07:45:28.461Z,10.70
2023-05-08T07:46:30.286Z,14.93
2023-05-08T07:47:32.527Z,7.43
2023-05-08T07:48:34.560Z,7.10
2023-05-08T07:49:36.821Z,7.78
2023-05-08T07:50:38.409Z,7.80
2023-05-08T07:51:40.361Z,6.93
2023-05-08T07:52:42.055Z,18.90
2023-05-08T07:53:43.750Z,9.93
2023-05-08T07:54:46.114Z,6.13
2023-05-08T07:55:47.883Z,5.43
2023-05-08T07:56:49.475Z,7.32
2023-05-08T07:57:51.116Z,8.73
2023-05-08T07:58:52.770Z,6.65
2023-05-08T07:59:54.373Z,8.93
2023-05-08T08:00:56.387Z,7.70
2023-05-08T08:01:58.088Z,8.23
2023-05-08T08:02:59.808Z,10.70
2023-05-08T08:04:01.606Z,9.25
2023-05-08T08:05:03.453Z,7.72
2023-05-08T08:06:05.179Z,7.80
2023-05-08T08:07:06.821Z,8.13
2023-05-08T08:08:08.664Z,6.57
2023-05-08T08:09:10.427Z,8.85
2023-05-08T08:10:12.579Z,8.13
2023-05-08T08:11:14.189Z,11.73
2023-05-08T08:12:15.814Z,9.00
2023-05-08T08:13:17.763Z,8.77
2023-05-08T08:14:19.446Z,17.35
2023-05-08T08:15:21.164Z,10.55
2023-05-08T08:16:22.921Z,8.73
2023-05-08T08:17:26.800Z,8.27
2023-05-08T08:18:31.011Z,6.38
2023-05-08T08:19:32.592Z,9.25
2023-05-08T08:20:34.231Z,7.63
2023-05-08T08:21:35.826Z,6.68
2023-05-08T08:22:37.593Z,11.18
2023-05-08T08:23:39.184Z,6.68
2023-05-08T08:24:40.843Z,5.60
2023-05-08T08:25:42.727Z,5.82
2023-05-08T08:26:44.300Z,6.33
2023-05-08T08:27:46.379Z,7.25
2023-05-08T08:28:47.982Z,4.88
2023-05-08T08:29:51.151Z,6.10
2023-05-08T08:30:54.562Z,6.50
2023-05-08T08:31:56.486Z,6.97
2023-05-08T08:33:02.181Z,6.40
2023-05-08T08:34:04.161Z,8.43
2023-05-08T08:35:06.373Z,6.47
2023-05-08T08:36:13.532Z,4.97
2023-05-08T08:37:15.173Z,5.07
2023-05-08T08:38:17.037Z,4.65
2023-05-08T08:39:18.682Z,5.05
2023-05-08T08:40:20.429Z,4.47
2023-05-08T08:41:23.377Z,4.32
2023-05-08T08:42:25.256Z,5.45
2023-05-08T08:43:26.932Z,4.60
2023-05-08T08:44:28.599Z,5.60
2023-05-08T08:45:31.267Z,4.65
2023-05-08T08:46:35.753Z,5.10
2023-05-08T08:47:37.938Z,4.10
2023-05-08T08:48:39.873Z,5.25
2023-05-08T08:49:43.740Z,4.97
2023-05-08T08:50:45.320Z,4.88
2023-05-08T08:51:52.554Z,5.22
2023-05-08T08:53:17.215Z,5.55
2023-05-08T08:54:21.989Z,5.15
2023-05-08T08:55:23.640Z,3.75
2023-05-08T08:56:25.373Z,4.15
2023-05-08T08:57:28.071Z,7.20
2023-05-08T08:58:38.645Z,4.80
2023-05-08T08:59:40.690Z,7.40
2023-05-08T09:00:42.770Z,19.15
2023-05-08T09:01:45.470Z,5.88
2023-05-08T09:02:47.222Z,4.90
2023-05-08T09:03:49.965Z,6.10
2023-05-08T09:04:51.776Z,5.13
2023-05-08T09:05:53.851Z,8.20
2023-05-08T09:06:56.332Z,5.88
2023-05-08T09:07:58.218Z,5.90
2023-05-08T09:08:59.776Z,4.23
2023-05-08T09:10:01.337Z,4.85
2023-05-08T09:11:03.338Z,7.10
2023-05-08T09:12:05.726Z,3.83
2023-05-08T09:13:07.380Z,3.50
2023-05-08T09:14:09.762Z,5.53
2023-05-08T09:15:11.593Z,3.38
2023-05-08T09:16:13.507Z,3.67
2023-05-08T09:17:15.157Z,3.72
2023-05-08T09:18:17.564Z,4.85
2023-05-08T09:19:20.400Z,3.43
2023-05-08T09:20:24.075Z,4.05
2023-05-08T09:21:25.698Z,3.30
2023-05-08T09:22:27.461Z,3.20
2023-05-08T09:23:29.133Z,4.05
2023-05-08T09:24:57.738Z,4.57
2023-05-08T09:25:59.324Z,4.25
2023-05-08T09:27:00.925Z,5.60
2023-05-08T09:28:25.303Z,4.50
2023-05-08T09:29:26.898Z,3.75
2023-05-08T09:30:28.526Z,4.27
2023-05-08T09:31:36.876Z,4.30
2023-05-08T09:32:40.016Z,4.35
2023-05-08T09:33:44.430Z,3.67
2023-05-08T09:34:46.503Z,3.88
2023-05-08T09:35:50.716Z,3.13
2023-05-08T09:36:52.326Z,3.10
2023-05-08T09:37:55.541Z,3.28
2023-05-08T09:38:59.010Z,4.28
2023-05-08T09:40:16.672Z,6.25
2023-05-08T09:41:18.263Z,4.10
2023-05-08T09:42:19.934Z,3.10
2023-05-08T09:43:21.570Z,3.00
2023-05-08T09:44:23.227Z,3.63
2023-05-08T09:45:29.544Z,3.13
2023-05-08T09:46:31.556Z,4.35
2023-05-08T09:47:33.171Z,3.70
2023-05-08T09:48:38.466Z,3.03
2023-05-08T09:49:40.790Z,4.03
2023-05-08T09:50:43.615Z,2.55
2023-05-08T09:51:52.880Z,2.83
2023-05-08T09:52:54.504Z,4.25
2023-05-08T09:53:57.428Z,4.07
2023-05-08T09:55:07.135Z,2.40
2023-05-08T09:56:08.749Z,4.47
2023-05-08T09:57:13.898Z,3.60
2023-05-08T09:58:15.621Z,2.42
2023-05-08T09:59:27.449Z,3.20
2023-05-08T10:00:29.526Z,4.50
2023-05-08T10:01:35.673Z,4.07
2023-05-08T10:02:38.681Z,4.37
2023-05-08T10:03:50.059Z,3.00
2023-05-08T10:04:51.918Z,2.55
2023-05-08T10:05:53.625Z,3.53
2023-05-08T10:06:58.841Z,3.53
2023-05-08T10:08:23.302Z,4.70
2023-05-08T10:09:26.148Z,4.88
2023-05-08T10:10:30.937Z,5.47
2023-05-08T10:11:32.621Z,5.35
2023-05-08T10:12:34.313Z,5.35
2023-05-08T10:13:35.983Z,4.33
2023-05-08T10:14:37.581Z,4.68
2023-05-08T10:15:39.276Z,3.92
2023-05-08T10:16:45.494Z,5.30
2023-05-08T10:18:02.269Z,6.32
2023-05-08T10:19:05.970Z,5.57
2023-05-08T10:20:08.294Z,4.35
2023-05-08T10:21:09.916Z,4.93
2023-05-08T10:22:11.676Z,3.50
2023-05-08T10:23:17.614Z,3.42
2023-05-08T10:24:20.025Z,5.33
2023-05-08T10:25:21.639Z,5.13
2023-05-08T10:26:27.359Z,3.08
2023-05-08T10:27:34.688Z,3.28
2023-05-08T10:28:59.929Z,3.35
2023-05-08T10:30:04.183Z,3.47
2023-05-08T10:31:05.883Z,3.08
2023-05-08T10:32:11.908Z,2.25
2023-05-08T10:33:15.574Z,4.35
2023-05-08T10:34:20.859Z,3.53
2023-05-08T10:35:22.969Z,2.97
2023-05-08T10:36:24.941Z,3.17
2023-05-08T10:37:27.443Z,2.72
2023-05-08T10:38:29.055Z,2.53
2023-05-08T10:39:30.847Z,3.95
2023-05-08T10:40:32.545Z,2.30
2023-05-08T10:41:34.095Z,2.40
2023-05-08T10:42:35.931Z,2.88
2023-05-08T10:43:37.520Z,4.35
2023-05-08T10:44:39.190Z,3.70
2023-05-08T10:45:40.790Z,2.17
2023-05-08T10:47:01.937Z,2.08
2023-05-08T10:48:45.862Z,2.58
2023-05-08T10:50:27.426Z,2.47
2023-05-08T10:51:54.765Z,1.45
2023-05-08T10:53:13.870Z,2.65
2023-05-08T10:54:42.523Z,2.38
2023-05-08T10:55:46.254Z,2.13
2023-05-08T10:56:48.795Z,2.13
2023-05-08T10:58:10.803Z,5.65
2023-05-08T10:59:18.670Z,1.23
2023-05-08T11:00:20.301Z,2.15
2023-05-08T11:01:21.927Z,2.88
2023-05-08T11:02:31.639Z,2.60
2023-05-08T11:03:38.359Z,1.58
2023-05-08T11:04:40.544Z,2.00
2023-05-08T11:05:48.810Z,5.43
2023-05-08T11:06:53.069Z,1.02
2023-05-08T11:07:56.548Z,3.42
2023-05-08T11:09:00.424Z,1.92
2023-05-08T11:10:13.477Z,2.60
2023-05-08T11:11:28.326Z,15.73
2023-05-08T11:12:31.305Z,4.80
2023-05-08T11:13:41.518Z,2.55
2023-05-08T11:14:43.397Z,1.48
2023-05-08T11:15:50.112Z,5.45
2023-05-08T11:16:54.975Z,3.00
2023-05-08T11:17:56.878Z,2.45
2023-05-08T11:19:17.743Z,2.35
2023-05-08T11:20:23.714Z,1.83
2023-05-08T11:21:25.440Z,2.17
2023-05-08T11:22:34.795Z,1.50
2023-05-08T11:23:36.726Z,2.53
2023-05-08T11:24:39.124Z,2.15
2023-05-08T11:25:44.274Z,3.72
2023-05-08T11:26:48.846Z,3.28
2023-05-08T11:27:50.511Z,2.55
2023-05-08T11:28:58.432Z,1.85
2023-05-08T11:30:24.350Z,2.08
2023-05-08T11:31:45.860Z,3.47
2023-05-08T11:33:19.937Z,2.23
2023-05-08T11:34:48.810Z,1.35
2023-05-08T11:36:15.377Z,1.05
2023-05-08T11:37:18.143Z,1.67
2023-05-08T11:38:21.670Z,1.95
2023-05-08T11:39:23.368Z,1.50
2023-05-08T11:40:54.278Z,1.70
2023-05-08T11:41:56.071Z,1.92
2023-05-08T11:42:57.757Z,1.42
2023-05-08T11:44:05.204Z,1.52
2023-05-08T11:45:13.619Z,5.87
2023-05-08T11:46:16.739Z,1.83
2023-05-08T11:47:18.864Z,1.15
2023-05-08T11:48:20.790Z,3.30
2023-05-08T11:49:27.076Z,5.65
2023-05-08T11:50:30.936Z,2.35
2023-05-08T11:51:33.228Z,2.20
2023-05-08T11:52:36.012Z,2.58
2023-05-08T11:53:37.789Z,1.67
2023-05-08T11:54:39.430Z,1.65
2023-05-08T11:55:41.012Z,2.13
2023-05-08T11:56:42.788Z,2.65
2023-05-08T11:57:44.400Z,1.75
2023-05-08T11:58:46.032Z,6.72
2023-05-08T11:59:51.449Z,6.70
2023-05-08T12:00:53.307Z,1.70
2023-05-08T12:02:59.637Z,2.90
2023-05-08T12:04:08.668Z,2.72
2023-05-08T12:05:11.022Z,4.13
2023-05-08T12:06:12.938Z,1.13
2023-05-08T12:07:15.886Z,2.70
2023-05-08T12:08:18.183Z,2.65
2023-05-08T12:09:20.628Z,13.80
2023-05-08T12:10:22.400Z,2.53
2023-05-08T12:11:26.797Z,1.85
2023-05-08T12:12:38.921Z,3.85
2023-05-08T12:13:40.588Z,1.42
2023-05-08T12:14:42.182Z,1.23
2023-05-08T12:15:44.517Z,1.33
2023-05-08T12:16:46.168Z,3.10
2023-05-08T12:17:47.819Z,1.38
2023-05-08T12:18:50.408Z,3.33
2023-05-08T12:19:55.024Z,2.90
2023-05-08T12:20:57.549Z,1.65
2023-05-08T12:21:59.148Z,3.38
2023-05-08T12:23:02.576Z,1.15
2023-05-08T12:24:09.049Z,1.90
2023-05-08T12:25:11.947Z,1.75
2023-05-08T12:26:13.901Z,1.40
2023-05-08T12:27:15.516Z,1.17
2023-05-08T12:28:17.190Z,1.65
2023-05-08T12:29:19.457Z,1.52
2023-05-08T12:30:21.131Z,1.45
2023-05-08T12:31:22.852Z,1.77
2023-05-08T12:32:24.635Z,1.48
2023-05-08T12:33:27.170Z,2.53
2023-05-08T12:34:28.849Z,1.58
2023-05-08T12:35:30.661Z,1.67
2023-05-08T12:36:36.102Z,1.85
2023-05-08T12:37:37.982Z,2.50
2023-05-08T12:38:39.615Z,2.33
2023-05-08T12:39:44.202Z,1.38
2023-05-08T12:40:47.748Z,1.55
2023-05-08T12:41:50.208Z,1.02
2023-05-08T12:42:51.849Z,1.42
2023-05-08T12:43:53.488Z,2.42
2023-05-08T12:44:55.162Z,4.47
2023-05-08T12:45:56.854Z,1.90
2023-05-08T12:46:58.875Z,1.58
2023-05-08T12:48:02.242Z,1.73
2023-05-08T12:49:07.258Z,1.33
2023-05-08T12:50:10.250Z,1.23
2023-05-08T12:51:12.023Z,1.55
2023-05-08T12:52:13.858Z,2.22
2023-05-08T12:53:19.012Z,1.17
2023-05-08T12:54:20.631Z,1.40
2023-05-08T12:55:28.944Z,1.20
2023-05-08T12:56:30.662Z,2.00
2023-05-08T12:57:32.244Z,1.40
2023-05-08T12:58:34.404Z,2.73
2023-05-08T12:59:36.152Z,2.90
2023-05-08T13:00:43.680Z,3.15
2023-05-08T13:01:51.076Z,1.60
2023-05-08T13:02:55.901Z,1.48
2023-05-08T13:04:02.337Z,2.35
2023-05-08T13:05:05.884Z,2.90
2023-05-08T13:06:07.824Z,1.98
2023-05-08T13:07:09.435Z,1.23
2023-05-08T13:08:11.220Z,3.38
2023-05-08T13:09:18.239Z,2.97
2023-05-08T13:10:22.367Z,1.88
2023-05-08T13:11:33.313Z,3.42
2023-05-08T13:12:35.085Z,5.43
2023-05-08T13:13:36.951Z,1.65
2023-05-08T13:14:38.578Z,2.28
2023-05-08T13:15:40.224Z,1.90
2023-05-08T13:16:43.864Z,2.25
2023-05-08T13:17:45.532Z,1.98
2023-05-08T13:18:47.317Z,1.98
2023-05-08T13:19:48.909Z,1.27
2023-05-08T13:20:50.519Z,2.47
2023-05-08T13:21:53.027Z,4.55
2023-05-08T13:22:54.633Z,2.08
2023-05-08T13:23:56.825Z,1.58
2023-05-08T13:24:58.625Z,3.88
2023-05-08T13:26:00.409Z,2.10
2023-05-08T13:27:02.112Z,1.90
2023-05-08T13:28:04.403Z,2.85
2023-05-08T13:29:06.023Z,1.77
2023-05-08T13:30:08.390Z,2.67
2023-05-08T13:31:09.979Z,3.33
2023-05-08T13:32:11.707Z,1.65
2023-05-08T13:33:13.458Z,3.45
2023-05-08T13:34:15.305Z,3.83
2023-05-08T13:35:17.805Z,2.35
2023-05-08T13:36:20.680Z,1.98
2023-05-08T13:37:22.331Z,1.45
2023-05-08T13:38:23.912Z,1.65
2023-05-08T13:39:25.663Z,2.05
2023-05-08T13:40:27.340Z,2.80
2023-05-08T13:41:28.932Z,1.67
2023-05-08T13:42:30.517Z,4.57
2023-05-08T13:43:32.130Z,3.58
2023-05-08T13:44:33.807Z,8.43
2023-05-08T13:45:35.559Z,3.90
2023-05-08T13:46:37.200Z,2.65
2023-05-08T13:47:38.878Z,5.13
2023-05-08T13:48:40.639Z,1.60
2023-05-08T13:49:42.329Z,2.13
2023-05-08T13:50:43.972Z,2.73
2023-05-08T13:51:49.204Z,1.58
2023-05-08T13:52:54.979Z,1.95
2023-05-08T13:53:57.039Z,2.60
2023-05-08T13:54:58.684Z,2.20
2023-05-08T13:56:00.854Z,3.08
2023-05-08T13:57:02.837Z,1.65
2023-05-08T13:58:04.442Z,2.45
2023-05-08T13:59:06.123Z,2.42
2023-05-08T14:00:08.994Z,1.55
2023-05-08T14:01:21.948Z,2.13
2023-05-08T14:02:28.085Z,2.00
2023-05-08T14:03:30.902Z,1.85
2023-05-08T14:04:32.652Z,2.80
2023-05-08T14:05:34.506Z,2.67